Terminal Aerodrome Forecast
Issued by NWS Sterling, VA

Current Version | Previous Version | Text Only | Print | Product List | Glossary Off
Versions: 1 2 3 4 5 6 7 8 9 10 11 12 13 14 15 16 17 18 19 20 21 22 23 24 25 26 27 28 29

035
FTUS41 KLWX 250534
TAFIAD
TAF
KIAD 250534Z 2506/2612 00000KT P6SM SKC
     FM250900 00000KT 5SM MIFG SKC
     FM251100 29005KT P6SM FEW050
     FM252000 23006KT P6SM FEW050
     FM260600 VRB03KT 5SM BR FEW130
     FM261100 00000KT 2SM BR SCT130=

USA.gov is the U.S. government's official web portal to all federal, state and local government web resources and services.